GW0886 Weather Reports


Display with metric or nautical units.
time (UTC)temp
F
wind
direction
speed
MPH
gust
MPH
rain 1hr
in
rain 24hr
in
rain mn
in
humidity
%
barometer
mb
20240228063256 55 29 5.0 8.0 0.00 0.00 0.00 53 1008.6
20240228062755 55 14 8.0 11.0 0.00 0.00 0.00 53 1008.6
20240228062254 56 33 0.0 0.0 0.00 0.00 0.00 53 1008.6
20240228061753 56 13 7.0 9.0 0.00 0.00 0.00 52 1007.9
20240228061252 57 29 4.0 7.0 0.00 0.00 0.00 52 1008.2
20240228060751 58 9 7.0 9.0 0.00 0.00 0.00 51 1007.6
20240228060250 59 30 2.0 7.0 0.00 0.00 0.00 50 1007.6
20240228055749 61 42 8.0 11.0 0.00 0.00 0.00 49 1007.9
20240228055248 63 33 0.0 0.0 0.00 0.00 0.00 49 1007.2
20240228054746 67 29 5.0 14.0 0.00 0.00 0.00 47 1006.9
20240228054246 72 33 0.0 0.0 0.00 0.00 0.00 48 1006.5
20240228053745 75 226 0.0 2.0 0.00 0.00 0.00 57 1005.9
20240228053244 73 266 0.0 0.0 0.00 0.00 0.00 56 1005.1
20240228052743 72 243 0.0 1.0 0.00 0.00 0.00 69 1005.4
20240228052242 72 17 2.0 5.0 0.00 0.00 0.00 73 1005.4
20240228051740 72 222 0.0 0.0 0.00 0.00 0.00 73 1004.1
20240228051240 72 212 0.0 1.0 0.00 0.00 0.00 73 1004.1
20240228050739 73 200 0.0 0.0 0.00 0.00 0.00 72 1004.1
20240228050238 73 219 0.0 0.0 0.00 0.00 0.00 72 1003.7
20240228045737 73 196 1.0 1.0 0.00 0.00 0.00 72 1003.7
20240228045236 73 226 1.0 5.0 0.00 0.00 0.00 72 1004.1
20240228044734 73 229 0.0 0.0 0.00 0.00 0.00 72 1003.7
20240228044232 73 237 0.0 1.0 0.00 0.00 0.00 72 1003.7
20240228043732 73 226 0.0 1.0 0.00 0.00 0.00 73 1004.1
20240228043232 73 213 0.0 1.0 0.00 0.00 0.00 75 1003.7
20240228042730 72 212 0.0 1.0 0.00 0.00 0.00 76 1003.7
20240228042230 72 236 0.0 0.0 0.00 0.00 0.00 77 1004.1
20240228041728 72 218 0.0 0.0 0.00 0.00 0.00 78 1004.1
20240228041227 72 236 0.0 0.0 0.00 0.00 0.00 79 1003.7
20240228040726 72 217 0.0 0.0 0.00 0.00 0.00 80 1004.1
20240228040224 72 229 0.0 0.0 0.00 0.00 0.00 80 1004.1
20240228035723 72 236 0.0 1.0 0.00 0.00 0.00 81 1003.7
20240228035223 72 226 0.0 0.0 0.00 0.00 0.00 81 1003.7
20240228034722 72 227 0.0 0.0 0.00 0.00 0.00 81 1003.7
20240228034222 72 212 0.0 0.0 0.00 0.00 0.00 81 1003.7
20240228033721 72 225 0.0 0.0 0.00 0.00 0.00 81 1004.1
20240228033220 72 225 0.0 0.0 0.00 0.00 0.00 81 1003.7
20240228032720 72 217 0.0 0.0 0.00 0.00 0.00 81 1003.7
20240228032218 73 238 0.0 0.0 0.00 0.00 0.00 80 1003.7
20240228031716 73 225 0.0 0.0 0.00 0.00 0.00 80 1003.7
20240228031215 73 212 0.0 0.0 0.00 0.00 0.00 80 1003.4
20240228030713 73 232 0.0 0.0 0.00 0.00 0.00 80 1003.7
20240228030212 73 229 0.0 0.0 0.00 0.00 0.00 80 1003.4
20240228025710 73 234 0.0 0.0 0.00 0.00 0.00 80 1003.4
20240228025209 73 229 0.0 0.0 0.00 0.00 0.00 81 1003.1
20240228024708 73 239 1.0 2.0 0.00 0.00 0.00 81 1003.1
20240228024207 73 212 0.0 1.0 0.00 0.00 0.00 81 1003.1
20240228023706 72 235 0.0 0.0 0.00 0.00 0.00 82 1002.7
20240228023206 72 209 0.0 0.0 0.00 0.00 0.00 82 1002.7
20240228022704 72 220 0.0 1.0 0.00 0.00 0.00 83 1003.1
20240228022203 72 230 0.0 1.0 0.00 0.00 0.00 83 1002.7
20240228021701 72 194 0.0 0.0 0.00 0.00 0.00 83 1002.7
20240228021200 72 226 0.0 0.0 0.00 0.00 0.00 83 1002.7
20240228020659 72 218 0.0 0.0 0.00 0.00 0.00 83 1002.7
20240228020158 73 188 0.0 1.0 0.00 0.00 0.00 82 1002.7
20240228015656 73 212 0.0 1.0 0.00 0.00 0.00 82 1002.7
20240228015155 73 232 0.0 1.0 0.00 0.00 0.00 82 1002.4
20240228014654 73 222 0.0 1.0 0.00 0.00 0.00 82 1002.4
20240228014152 73 209 0.0 1.0 0.00 0.00 0.00 82 1002.4
20240228013651 73 200 0.0 1.0 0.00 0.00 0.00 81 1002.4
20240228013150 73 201 0.0 1.0 0.00 0.00 0.00 81 1002.4
20240228012648 73 211 0.0 1.0 0.00 0.00 0.00 81 1002.4
20240228012147 73 196 0.0 1.0 0.00 0.00 0.00 81 1002.4
20240228011647 73 200 1.0 1.0 0.00 0.00 0.00 81 1002.4
20240228011145 73 231 1.0 2.0 0.00 0.00 0.00 81 1002.7
20240228010644 74 201 0.0 1.0 0.00 0.00 0.00 81 1002.4
20240228010142 74 213 0.0 1.0 0.00 0.00 0.00 80 1002.4
20240228005641 74 238 1.0 1.0 0.00 0.00 0.00 80 1002.7
20240228005139 74 209 1.0 1.0 0.00 0.00 0.00 80 1002.4
20240228004638 74 231 0.0 1.0 0.00 0.00 0.00 80 1002.7
20240228004137 74 203 0.0 1.0 0.00 0.00 0.00 80 1002.7
20240228003636 74 213 0.0 1.0 0.00 0.00 0.00 80 1002.7
20240228003134 74 215 0.0 0.0 0.00 0.00 0.00 79 1002.7
20240228002633 74 203 0.0 1.0 0.00 0.00 0.00 79 1002.7
20240228002132 74 218 0.0 1.0 0.00 0.00 0.00 79 1002.4
20240228001631 74 203 0.0 1.0 0.00 0.00 0.00 79 1002.7
20240228001130 74 203 0.0 1.0 0.00 0.00 0.00 79 1002.7
20240228000628 74 200 0.0 0.0 0.00 0.00 0.00 78 1003.1
20240228000127 74 204 0.0 1.0 0.00 0.00 0.00 78 1002.7
20240227235625 74 212 0.0 1.0 0.00 0.00 0.00 78 1002.7
20240227235124 75 210 1.0 2.0 0.00 0.00 0.00 77 1002.4
20240227234622 75 206 1.0 1.0 0.00 0.00 0.00 77 1002.4
20240227234120 75 218 1.0 2.0 0.00 0.00 0.00 77 1002.4
20240227233620 76 225 1.0 1.0 0.00 0.00 0.00 75 1002.4
20240227233118 76 207 1.0 1.0 0.00 0.00 0.00 74 1002.0
20240227232618 76 213 0.0 1.0 0.00 0.00 0.00 74 1002.4
20240227232116 76 209 0.0 1.0 0.00 0.00 0.00 74 1002.0
20240227231615 76 208 3.0 8.0 0.00 0.00 0.00 74 1002.4
20240227231114 76 202 0.0 1.0 0.00 0.00 0.00 73 1002.4
20240227230614 77 185 0.0 1.0 0.00 0.00 0.00 73 1002.4
20240227230112 77 210 0.0 1.0 0.00 0.00 0.00 72 1002.0
20240227225612 77 205 0.0 1.0 0.00 0.00 0.00 72 1002.4
20240227225111 77 215 2.0 7.0 0.00 0.00 0.00 70 1002.4
20240227224611 78 203 0.0 1.0 0.00 0.00 0.00 70 1002.4
20240227224111 78 208 0.0 1.0 0.00 0.00 0.00 69 1002.0
20240227223611 78 217 0.0 1.0 0.00 0.00 0.00 69 1002.0
20240227223109 78 219 1.0 1.0 0.00 0.00 0.00 68 1002.4
20240227222607 78 217 1.0 2.0 0.00 0.00 0.00 68 1002.4
20240227222106 78 210 0.0 1.0 0.00 0.00 0.00 68 1002.4
20240227221604 78 214 0.0 0.0 0.00 0.00 0.00 68 1002.4
20240227221102 78 218 8.0 10.0 0.00 0.00 0.00 67 1002.4
20240227220600 78 224 0.0 1.0 0.00 0.00 0.00 67 1002.4
20240227220059 78 207 0.0 0.0 0.00 0.00 0.00 68 1002.4
20240227215558 78 214 0.0 1.0 0.00 0.00 0.00 69 1002.4
20240227215057 78 233 0.0 1.0 0.00 0.00 0.00 69 1002.4
20240227214557 78 214 0.0 1.0 0.00 0.00 0.00 69 1002.4
20240227214055 78 195 0.0 1.0 0.00 0.00 0.00 70 1002.4
20240227213553 78 212 1.0 1.0 0.00 0.00 0.00 69 1002.4
20240227213051 78 221 0.0 1.0 0.00 0.00 0.00 70 1002.4
20240227212550 78 226 0.0 1.0 0.00 0.00 0.00 69 1002.4
20240227212047 77 199 0.0 0.0 0.00 0.00 0.00 70 1002.0
20240227211547 77 229 0.0 1.0 0.00 0.00 0.00 70 1002.4
20240227211046 77 228 0.0 0.0 0.00 0.00 0.00 70 1002.7
20240227210545 77 231 1.0 2.0 0.00 0.00 0.00 70 1002.4
20240227210044 77 224 1.0 1.0 0.00 0.00 0.00 69 1002.4
20240227205544 77 209 0.0 0.0 0.00 0.00 0.00 70 1002.4
20240227205042 77 207 0.0 1.0 0.00 0.00 0.00 71 1002.4
20240227204540 77 211 1.0 1.0 0.00 0.00 0.00 71 1002.4
20240227204038 77 211 0.0 1.0 0.00 0.00 0.00 72 1002.4
20240227203538 77 204 0.0 1.0 0.00 0.00 0.00 72 1002.4
20240227203037 77 218 1.0 1.0 0.00 0.00 0.00 72 1002.7
20240227202536 77 224 0.0 1.0 0.00 0.00 0.00 72 1002.7
20240227202036 76 225 0.0 0.0 0.00 0.00 0.00 73 1002.7
20240227201534 76 235 0.0 1.0 0.00 0.00 0.00 72 1002.7
20240227201032 76 232 0.0 1.0 0.00 0.00 0.00 73 1002.4
20240227200530 76 218 1.0 1.0 0.00 0.00 0.00 73 1002.7
20240227200028 76 215 0.0 0.0 0.00 0.00 0.00 74 1002.7
20240227195527 75 228 2.0 5.0 0.00 0.00 0.00 74 1003.1
20240227195026 75 231 4.0 8.0 0.00 0.00 0.00 74 1003.1
20240227194524 75 212 1.0 1.0 0.00 0.00 0.00 75 1003.4
20240227194023 75 206 1.0 1.0 0.00 0.00 0.00 75 1003.4
20240227193523 75 217 1.0 1.0 0.00 0.00 0.00 75 1003.7
20240227193023 75 233 0.0 0.0 0.00 0.00 0.00 75 1003.7
20240227192522 75 223 0.0 1.0 0.00 0.00 0.00 75 1003.7
20240227192021 75 213 1.0 1.0 0.00 0.00 0.00 75 1003.7
20240227191519 75 217 0.0 1.0 0.00 0.00 0.00 75 1003.7
20240227191018 75 225 0.0 1.0 0.00 0.00 0.00 76 1003.7
20240227190518 75 224 1.0 1.0 0.00 0.00 0.00 76 1003.7
20240227190016 75 214 8.0 9.0 0.00 0.00 0.00 76 1004.1
20240227185515 74 211 0.0 1.0 0.00 0.00 0.00 77 1004.1
20240227185015 74 223 0.0 1.0 0.00 0.00 0.00 78 1004.4
20240227184514 74 232 0.0 1.0 0.00 0.00 0.00 77 1004.7
20240227184014 74 216 0.0 0.0 0.00 0.00 0.00 78 1004.4
20240227183514 73 211 6.0 7.0 0.00 0.00 0.00 79 1004.7
20240227183013 73 217 5.0 6.0 0.00 0.00 0.00 79 1004.7
20240227182511 74 218 10.0 11.0 0.00 0.00 0.00 78 1005.1
20240227182009 74 217 7.0 9.0 0.00 0.00 0.00 78 1005.1
20240227181509 74 214 8.0 11.0 0.00 0.00 0.00 78 1005.1
20240227181008 74 207 8.0 10.0 0.00 0.00 0.00 78 1005.1
20240227180507 73 223 7.0 8.0 0.00 0.00 0.00 79 1005.1
20240227180006 73 231 7.0 9.0 0.00 0.00 0.00 79 1005.1
20240227175506 73 221 11.0 13.0 0.00 0.00 0.00 79 1005.4
20240227175003 73 216 7.0 9.0 0.00 0.00 0.00 80 1005.4
20240227174503 73 228 7.0 9.0 0.00 0.00 0.00 80 1005.1
20240227174004 73 223 5.0 9.0 0.00 0.00 0.00 80 1005.1
20240227173503 73 200 0.0 1.0 0.00 0.00 0.00 81 1005.1
20240227173001 73 207 0.0 1.0 0.00 0.00 0.00 82 1005.1
20240227172500 72 210 0.0 1.0 0.00 0.00 0.00 83 1005.4
20240227172001 71 213 9.0 11.0 0.00 0.00 0.00 83 1005.1
20240227171459 71 196 1.0 1.0 0.00 0.00 0.00 84 1005.1
20240227170957 71 189 5.0 8.0 0.00 0.00 0.00 84 1005.4
20240227170457 71 204 0.0 1.0 0.00 0.00 0.00 84 1005.1
20240227165955 71 215 8.0 9.0 0.00 0.00 0.00 84 1005.4
20240227165454 71 212 1.0 1.0 0.00 0.00 0.00 84 1005.1
20240227164954 71 223 0.0 1.0 0.00 0.00 0.00 85 1005.4
20240227164452 71 212 0.0 0.0 0.00 0.00 0.00 86 1005.1
20240227163950 71 212 0.0 1.0 0.00 0.00 0.00 86 1005.4
20240227163449 71 202 0.0 1.0 0.00 0.00 0.00 86 1005.4
20240227162947 70 209 0.0 1.0 0.00 0.00 0.00 86 1005.4
20240227162445 70 201 0.0 1.0 0.00 0.00 0.00 87 1005.4
20240227161945 70 231 0.0 1.0 0.00 0.00 0.00 88 1005.4
20240227161444 70 215 0.0 1.0 0.00 0.00 0.00 88 1005.4
20240227160942 69 218 1.0 1.0 0.00 0.00 0.00 89 1005.4
20240227160441 69 215 0.0 1.0 0.00 0.00 0.00 89 1005.4
20240227155940 69 212 0.0 1.0 0.00 0.00 0.00 89 1005.4
20240227155439 69 224 1.0 1.0 0.00 0.00 0.00 90 1005.1
20240227154938 69 206 0.0 1.0 0.00 0.00 0.00 90 1005.1
20240227154437 68 206 0.0 1.0 0.00 0.00 0.00 91 1005.1
20240227153936 68 201 0.0 1.0 0.00 0.00 0.00 92 1005.1
20240227153435 68 185 0.0 1.0 0.00 0.00 0.00 92 1005.4
20240227152934 68 223 0.0 1.0 0.00 0.00 0.00 93 1005.4
20240227152434 67 209 0.0 1.0 0.00 0.00 0.00 93 1005.4
20240227151933 67 205 0.0 0.0 0.00 0.00 0.00 93 1005.4
20240227151432 67 221 0.0 1.0 0.00 0.00 0.00 93 1005.4
20240227150932 67 204 0.0 1.0 0.00 0.00 0.00 93 1005.4
20240227150432 67 193 0.0 0.0 0.00 0.00 0.00 93 1005.4
20240227145930 67 197 0.0 0.0 0.00 0.00 0.00 93 1005.4
20240227145430 67 208 0.0 1.0 0.00 0.00 0.00 93 1005.9
20240227144928 67 212 0.0 0.0 0.00 0.00 0.00 94 1005.9
20240227144427 67 192 0.0 0.0 0.00 0.00 0.00 94 1005.4
20240227143927 66 195 0.0 0.0 0.00 0.00 0.00 94 1005.1
20240227143426 66 214 0.0 1.0 0.00 0.00 0.00 93 1005.4
20240227142926 66 210 0.0 0.0 0.00 0.00 0.00 93 1005.4
20240227142425 66 203 0.0 1.0 0.00 0.00 0.00 93 1005.1
20240227141925 66 219 0.0 1.0 0.00 0.00 0.00 93 1005.4
20240227141425 66 184 0.0 1.0 0.00 0.00 0.00 93 1005.1
20240227140922 66 193 0.0 0.0 0.00 0.00 0.00 93 1005.1
20240227140422 66 206 0.0 0.0 0.00 0.00 0.00 93 1005.1
20240227135922 66 199 0.0 1.0 0.00 0.00 0.00 93 1005.1
20240227135420 66 211 0.0 1.0 0.00 0.00 0.00 93 1005.4
20240227134919 66 211 0.0 1.0 0.00 0.00 0.00 93 1005.1
20240227134418 66 225 0.0 2.0 0.00 0.00 0.00 92 1005.1
20240227133917 66 227 0.0 1.0 0.00 0.00 0.00 92 1005.1
20240227133417 66 209 0.0 0.0 0.00 0.00 0.00 92 1004.7
20240227132916 66 209 0.0 1.0 0.00 0.00 0.00 92 1004.7
20240227132415 66 197 0.0 0.0 0.00 0.00 0.00 91 1004.7
20240227131913 66 197 0.0 0.0 0.00 0.00 0.00 91 1004.7
20240227131413 66 209 0.0 0.0 0.00 0.00 0.00 91 1004.7
20240227130913 66 196 0.0 1.0 0.00 0.00 0.00 90 1004.7
20240227130412 66 188 0.0 0.0 0.00 0.00 0.00 89 1004.7
20240227125910 66 195 0.0 0.0 0.00 0.00 0.00 89 1004.7
20240227125410 66 193 0.0 0.0 0.00 0.00 0.00 89 1004.4
20240227124909 66 203 0.0 0.0 0.00 0.00 0.00 89 1004.7
20240227124408 66 212 0.0 0.0 0.00 0.00 0.00 88 1004.7
20240227123907 66 217 0.0 0.0 0.00 0.00 0.00 88 1004.7
20240227123406 66 218 0.0 1.0 0.00 0.00 0.00 88 1004.7
20240227122906 67 201 0.0 0.0 0.00 0.00 0.00 88 1004.7
20240227122406 67 222 0.0 1.0 0.00 0.00 0.00 88 1004.7
20240227121905 67 221 0.0 0.0 0.00 0.00 0.00 87 1004.7
20240227121405 67 218 0.0 0.0 0.00 0.00 0.00 87 1005.1
20240227120903 67 209 0.0 0.0 0.00 0.00 0.00 86 1004.7
20240227120402 67 209 0.0 0.0 0.00 0.00 0.00 86 1004.7
20240227115902 67 214 0.0 1.0 0.00 0.00 0.00 86 1004.4
20240227115402 67 189 0.0 0.0 0.00 0.00 0.00 85 1004.4
20240227114859 67 204 0.0 0.0 0.00 0.00 0.00 85 1004.4
20240227114359 67 205 0.0 0.0 0.00 0.00 0.00 85 1004.4
20240227113857 67 209 0.0 0.0 0.00 0.00 0.00 85 1004.4
20240227113356 67 224 0.0 0.0 0.00 0.00 0.00 85 1004.4
20240227112855 67 212 0.0 1.0 0.00 0.00 0.00 84 1004.4
20240227112355 67 212 0.0 0.0 0.00 0.00 0.00 84 1004.1
20240227111854 67 204 0.0 0.0 0.00 0.00 0.00 85 1004.4
20240227111354 67 201 0.0 0.0 0.00 0.00 0.00 84 1004.4
20240227110852 67 209 0.0 0.0 0.00 0.00 0.00 85 1004.1
20240227110351 67 212 0.0 0.0 0.00 0.00 0.00 85 1004.1
20240227105851 67 231 0.0 0.0 0.00 0.00 0.00 84 1004.1
20240227105350 67 209 0.0 0.0 0.00 0.00 0.00 85 1004.1
20240227104848 67 204 0.0 0.0 0.00 0.00 0.00 85 1004.4
20240227104347 68 201 0.0 1.0 0.00 0.00 0.00 84 1004.1
20240227103846 68 217 0.0 0.0 0.00 0.00 0.00 84 1004.1
20240227103346 68 216 0.0 0.0 0.00 0.00 0.00 84 1004.1
20240227102844 68 209 0.0 1.0 0.00 0.00 0.00 84 1004.1
20240227102343 68 213 0.0 0.0 0.00 0.00 0.00 84 1004.1
20240227101843 68 229 0.0 0.0 0.00 0.00 0.00 84 1004.1
20240227101342 68 220 0.0 0.0 0.00 0.00 0.00 84 1004.1
20240227100841 68 218 0.0 1.0 0.00 0.00 0.00 83 1004.1
20240227100339 68 230 0.0 1.0 0.00 0.00 0.00 84 1004.1
20240227095838 68 201 0.0 1.0 0.00 0.00 0.00 84 1004.1
20240227095337 68 209 0.0 0.0 0.00 0.00 0.00 83 1003.7
20240227094836 68 212 1.0 1.0 0.00 0.00 0.00 84 1004.1
20240227094335 68 218 0.0 1.0 0.00 0.00 0.00 84 1004.4
20240227093834 68 222 0.0 1.0 0.00 0.00 0.00 84 1004.4
20240227093334 68 222 1.0 1.0 0.00 0.00 0.00 84 1004.1
20240227092833 68 227 0.0 1.0 0.00 0.00 0.00 84 1004.1
20240227092332 68 222 0.0 1.0 0.00 0.00 0.00 84 1004.4
20240227091832 68 208 0.0 1.0 0.00 0.00 0.00 83 1004.1
20240227091331 68 209 0.0 0.0 0.00 0.00 0.00 83 1004.1
20240227090831 68 227 0.0 0.0 0.00 0.00 0.00 83 1004.4
20240227090330 68 222 0.0 1.0 0.00 0.00 0.00 83 1004.7
20240227085829 68 201 0.0 1.0 0.00 0.00 0.00 82 1004.4
20240227085328 68 201 0.0 0.0 0.00 0.00 0.00 82 1004.7
20240227084826 68 209 0.0 0.0 0.00 0.00 0.00 82 1004.7
20240227084326 69 216 0.0 1.0 0.00 0.00 0.00 82 1004.7
20240227083824 69 203 0.0 0.0 0.00 0.00 0.00 81 1004.7
20240227083323 69 222 0.0 0.0 0.00 0.00 0.00 81 1005.1
20240227082822 69 222 1.0 1.0 0.00 0.00 0.00 81 1004.7
20240227082321 69 229 0.0 0.0 0.00 0.00 0.00 81 1005.1
20240227081819 69 217 0.0 1.0 0.00 0.00 0.00 81 1005.1
20240227081317 69 225 0.0 0.0 0.00 0.00 0.00 80 1005.4
20240227080815 69 218 0.0 1.0 0.00 0.00 0.00 80 1005.1
20240227080315 70 204 0.0 0.0 0.00 0.00 0.00 80 1005.4
20240227075815 70 232 0.0 1.0 0.00 0.00 0.00 79 1005.1
20240227075313 70 213 0.0 1.0 0.00 0.00 0.00 79 1005.1
20240227074811 70 244 0.0 1.0 0.00 0.00 0.00 78 1005.1
20240227074309 70 234 0.0 0.0 0.00 0.00 0.00 78 1005.1
20240227073808 70 237 1.0 1.0 0.00 0.00 0.00 78 1005.1
20240227073307 70 240 0.0 1.0 0.00 0.00 0.00 78 1005.4
20240227072805 70 221 1.0 2.0 0.00 0.00 0.00 78 1005.1
20240227072306 71 246 0.0 1.0 0.00 0.00 0.00 78 1005.1
20240227071804 71 228 0.0 1.0 0.00 0.00 0.00 78 1005.1
20240227071304 71 225 0.0 1.0 0.00 0.00 0.00 78 1005.1
20240227070804 71 235 0.0 1.0 0.00 0.00 0.00 78 1005.1
20240227070303 71 244 0.0 1.0 0.00 0.00 0.00 78 1005.4
20240227065802 71 205 0.0 0.0 0.00 0.00 0.00 78 1005.1
20240227065305 71 212 0.0 0.0 0.00 0.00 0.00 77 1005.1
20240227064801 71 244 0.0 0.0 0.00 0.00 0.00 77 1005.1
20240227064259 71 256 0.0 1.0 0.00 0.00 0.00 77 1005.4
20240227063758 71 222 0.0 1.0 0.00 0.00 0.00 77 1005.4